Stoney Point, Missouri
Current Conditions -  °F | °C
As of 8:35 AM on Thursday 27 Nov 2014 (Local Time) from KFAM Reporting Station
Overcast Overcast  
Wind Chill: -6°   Ceiling: 1200
Heat Index: -1°   Visibility: 8mi
Dew Point: -4°   Wind: 9mph
Humidity: 80%   Direction: 310°NW
Pressure: 30.47"   Gusts: NA
Location:  37.9132°N, 90.7°W
Report Text: KFAM 271435Z AUTO 31008KT 8SM OVC012 M01/M04 A3047 RMK AO1
Loading
Personal Weather Stations






























Interactive Weather Map New forecast layout! Learn more

10-Day Weather Forecast

Advertisements
Track Severe Weather on mobile